createdAt,value
2023-04-24T00:02:05.025Z,13.34
2023-04-24T00:04:32.844Z,13.38
2023-04-24T00:07:01.028Z,13.34
2023-04-24T00:09:27.529Z,13.22
2023-04-24T00:11:54.629Z,13.16
2023-04-24T00:14:21.026Z,13.20
2023-04-24T00:16:47.444Z,13.22
2023-04-24T00:19:14.030Z,13.20
2023-04-24T00:21:40.905Z,13.15
2023-04-24T00:24:09.875Z,13.12
2023-04-24T00:26:36.277Z,13.09
2023-04-24T00:29:02.791Z,13.02
2023-04-24T00:31:29.255Z,13.02
2023-04-24T00:33:55.707Z,13.00
2023-04-24T00:36:22.113Z,12.98
2023-04-24T00:38:48.579Z,12.96
2023-04-24T00:41:14.986Z,12.96
2023-04-24T00:43:41.403Z,13.00
2023-04-24T00:46:08.246Z,12.94
2023-04-24T00:48:35.310Z,13.07
2023-04-24T00:51:02.097Z,13.12
2023-04-24T00:53:28.522Z,13.22
2023-04-24T00:55:55.036Z,13.13
2023-04-24T00:58:21.766Z,13.09
2023-04-24T01:00:49.929Z,13.20
2023-04-24T01:03:17.113Z,13.24
2023-04-24T01:05:43.633Z,13.29
2023-04-24T01:08:10.117Z,13.25
2023-04-24T01:10:37.751Z,13.15
2023-04-24T01:13:04.210Z,13.05
2023-04-24T01:15:30.724Z,13.09
2023-04-24T01:17:57.438Z,13.00
2023-04-24T01:20:27.104Z,13.08
2023-04-24T01:22:55.818Z,12.98
2023-04-24T01:25:24.366Z,12.97
2023-04-24T01:27:51.118Z,12.96
2023-04-24T01:30:17.944Z,13.06
2023-04-24T01:32:45.820Z,12.95
2023-04-24T01:35:12.249Z,13.04
2023-04-24T01:37:38.708Z,13.06
2023-04-24T01:40:07.718Z,12.96
2023-04-24T01:42:35.726Z,12.96
2023-04-24T01:45:04.928Z,13.06
2023-04-24T01:47:32.432Z,13.12
2023-04-24T01:49:59.604Z,13.10
2023-04-24T01:52:26.502Z,13.15
2023-04-24T01:54:53.897Z,13.13
2023-04-24T01:57:20.432Z,13.15
2023-04-24T01:59:46.849Z,13.05
2023-04-24T02:02:15.114Z,13.08
2023-04-24T02:04:41.592Z,12.98
2023-04-24T02:07:08.022Z,13.16
2023-04-24T02:09:34.433Z,13.21
2023-04-24T02:12:01.664Z,13.14
2023-04-24T02:14:28.084Z,13.09
2023-04-24T02:16:55.318Z,13.12
2023-04-24T02:19:21.730Z,13.05
2023-04-24T02:21:51.336Z,13.21
2023-04-24T02:24:17.755Z,13.17
2023-04-24T02:26:44.155Z,13.18
2023-04-24T02:29:10.577Z,13.13
2023-04-24T02:31:37.036Z,13.04
2023-04-24T02:34:03.515Z,13.06
2023-04-24T02:36:29.911Z,12.97
2023-04-24T02:38:56.311Z,12.97
2023-04-24T02:41:22.768Z,12.97
2023-04-24T02:43:49.194Z,13.14
2023-04-24T02:46:15.787Z,13.15
2023-04-24T02:48:42.279Z,13.20
2023-04-24T02:51:09.105Z,13.08
2023-04-24T02:53:35.581Z,13.02
2023-04-24T02:56:02.680Z,13.10
2023-04-24T02:58:29.130Z,13.06
2023-04-24T03:00:56.698Z,13.09
2023-04-24T03:03:23.878Z,13.06
2023-04-24T03:05:50.521Z,13.05
2023-04-24T03:08:17.107Z,12.98
2023-04-24T03:10:44.024Z,13.09
2023-04-24T03:13:11.223Z,13.12
2023-04-24T03:15:38.486Z,13.14
2023-04-24T03:18:05.319Z,13.18
2023-04-24T03:20:31.794Z,13.15
2023-04-24T03:22:58.508Z,13.09
2023-04-24T03:25:25.994Z,13.06
2023-04-24T03:27:52.808Z,13.14
2023-04-24T03:30:35.720Z,13.08
2023-04-24T03:33:03.003Z,13.07
2023-04-24T03:35:33.018Z,13.11
2023-04-24T03:38:02.654Z,13.17
2023-04-24T03:40:40.834Z,13.21
2023-04-24T03:43:19.255Z,13.12
2023-04-24T03:45:46.386Z,13.19
2023-04-24T03:48:14.350Z,13.12
2023-04-24T03:50:40.808Z,13.16
2023-04-24T03:53:10.296Z,13.15
2023-04-24T03:55:40.116Z,13.21
2023-04-24T03:58:06.876Z,13.21
2023-04-24T04:00:33.988Z,13.27
2023-04-24T04:03:20.646Z,13.30
2023-04-24T04:05:47.623Z,13.25
2023-04-24T04:08:14.103Z,13.22
2023-04-24T04:10:40.628Z,13.16
2023-04-24T04:13:07.548Z,13.25
2023-04-24T04:15:34.922Z,13.24
2023-04-24T04:18:01.357Z,13.28
2023-04-24T04:20:28.286Z,13.21
2023-04-24T04:22:54.771Z,13.22
2023-04-24T04:25:30.182Z,13.17
2023-04-24T04:27:56.666Z,13.07
2023-04-24T04:30:24.416Z,13.09
2023-04-24T04:32:57.628Z,13.00
2023-04-24T04:35:24.176Z,13.05
2023-04-24T04:37:52.452Z,13.00
2023-04-24T04:40:37.353Z,13.02
2023-04-24T04:43:06.660Z,13.07
2023-04-24T04:45:42.340Z,13.10
2023-04-24T04:48:21.987Z,13.09
2023-04-24T04:50:49.177Z,13.20
2023-04-24T04:53:16.103Z,13.26
2023-04-24T04:55:42.918Z,13.29
2023-04-24T04:58:11.617Z,13.27
2023-04-24T05:00:38.369Z,13.35
2023-04-24T05:05:45.764Z,13.46
2023-04-24T05:10:44.199Z,13.45
2023-04-24T05:13:11.174Z,13.50
2023-04-24T05:15:37.623Z,13.58
2023-04-24T05:18:04.707Z,13.58
2023-04-24T05:20:31.364Z,13.55
2023-04-24T05:22:57.789Z,13.57
2023-04-24T05:25:25.539Z,13.63
2023-04-24T05:27:58.550Z,13.58
2023-04-24T05:30:25.002Z,13.64
2023-04-24T05:32:51.558Z,13.71
2023-04-24T05:35:19.636Z,13.77
2023-04-24T05:37:46.457Z,13.81
2023-04-24T05:40:14.411Z,13.75
2023-04-24T05:42:40.818Z,14.03
2023-04-24T05:45:07.792Z,14.12
2023-04-24T05:47:35.379Z,14.13
2023-04-24T05:50:01.802Z,14.30
2023-04-24T05:52:28.531Z,14.19
2023-04-24T05:54:55.035Z,14.37
2023-04-24T05:57:24.632Z,14.38
2023-04-24T05:59:58.340Z,14.46
2023-04-24T06:02:25.935Z,14.28
2023-04-24T06:04:53.072Z,14.38
2023-04-24T06:07:19.536Z,14.50
2023-04-24T06:09:46.153Z,14.64
2023-04-24T06:12:12.700Z,14.73
2023-04-24T06:14:52.785Z,14.89
2023-04-24T06:17:26.729Z,14.92
2023-04-24T06:19:53.530Z,15.13
2023-04-24T06:22:21.560Z,15.30
2023-04-24T06:24:49.341Z,15.41
2023-04-24T06:27:16.007Z,15.45
2023-04-24T06:29:42.608Z,15.67
2023-04-24T06:32:09.252Z,16.20
2023-04-24T06:34:36.495Z,16.25
2023-04-24T06:37:03.157Z,16.10
2023-04-24T06:39:29.609Z,15.96
2023-04-24T06:41:56.017Z,15.91
2023-04-24T06:44:23.920Z,15.90
2023-04-24T06:46:50.336Z,15.88
2023-04-24T06:49:17.051Z,15.80
2023-04-24T06:51:43.773Z,15.61
2023-04-24T06:54:10.184Z,15.71
2023-04-24T06:56:36.800Z,15.68
2023-04-24T06:59:03.224Z,15.84
2023-04-24T07:01:29.699Z,15.90
2023-04-24T07:03:56.336Z,15.92
2023-04-24T07:06:24.579Z,15.93
2023-04-24T07:08:51.047Z,16.16
2023-04-24T07:11:17.480Z,16.27
2023-04-24T07:13:44.854Z,16.46
2023-04-24T07:16:11.492Z,16.41
2023-04-24T07:18:38.380Z,16.45
2023-04-24T07:21:04.834Z,16.61
2023-04-24T07:23:32.235Z,16.71
2023-04-24T07:25:58.697Z,16.80
2023-04-24T07:28:25.651Z,17.06
2023-04-24T07:30:54.835Z,17.34
2023-04-24T07:33:21.332Z,17.53
2023-04-24T07:35:48.014Z,17.66
2023-04-24T07:38:14.552Z,17.80
2023-04-24T07:40:40.986Z,17.55
2023-04-24T07:43:07.408Z,17.86
2023-04-24T07:45:37.042Z,18.00
2023-04-24T07:48:03.794Z,17.90
2023-04-24T07:50:30.319Z,17.75
2023-04-24T07:52:56.727Z,17.74
2023-04-24T07:55:24.680Z,18.00
2023-04-24T07:57:52.914Z,18.40
2023-04-24T08:00:19.650Z,17.86
2023-04-24T08:02:46.463Z,17.92
2023-04-24T08:05:13.424Z,18.03
2023-04-24T08:07:40.032Z,17.87
2023-04-24T08:10:07.088Z,17.66
2023-04-24T08:12:33.525Z,17.53
2023-04-24T08:14:59.937Z,17.55
2023-04-24T08:17:29.881Z,17.76
2023-04-24T08:20:02.309Z,17.62
2023-04-24T08:22:29.078Z,17.53
2023-04-24T08:24:56.989Z,17.73
2023-04-24T08:27:26.841Z,17.61
2023-04-24T08:29:56.193Z,17.77
2023-04-24T08:32:22.810Z,17.31
2023-04-24T08:34:49.985Z,17.42
2023-04-24T08:37:16.557Z,17.33
2023-04-24T08:39:43.329Z,17.48
2023-04-24T08:42:10.209Z,17.83
2023-04-24T08:44:37.100Z,17.62
2023-04-24T08:47:03.897Z,17.25
2023-04-24T08:49:30.719Z,17.02
2023-04-24T08:51:57.529Z,17.17
2023-04-24T08:54:24.382Z,17.23
2023-04-24T08:56:52.130Z,17.32
2023-04-24T08:59:19.124Z,17.66
2023-04-24T09:01:48.305Z,17.54
2023-04-24T09:04:17.229Z,17.54
2023-04-24T09:06:43.896Z,17.45
2023-04-24T09:09:12.531Z,17.60
2023-04-24T09:11:38.946Z,17.78
2023-04-24T09:14:05.513Z,17.85
2023-04-24T09:16:35.945Z,17.85
2023-04-24T09:19:04.082Z,17.77
2023-04-24T09:21:34.747Z,17.88
2023-04-24T09:24:06.443Z,17.58
2023-04-24T09:26:36.214Z,17.79
2023-04-24T09:29:04.993Z,18.00
2023-04-24T09:31:31.769Z,18.17
2023-04-24T09:34:01.570Z,18.14
2023-04-24T09:36:38.143Z,18.18
2023-04-24T09:39:11.753Z,18.12
2023-04-24T09:41:50.145Z,17.98
2023-04-24T09:44:24.110Z,17.90
2023-04-24T09:46:58.158Z,17.94
2023-04-24T09:49:26.713Z,17.86
2023-04-24T09:51:53.810Z,18.06
2023-04-24T09:54:22.440Z,18.11
2023-04-24T09:56:50.936Z,18.09
2023-04-24T09:59:20.302Z,17.91
2023-04-24T10:01:49.450Z,17.99
2023-04-24T10:04:18.437Z,17.92
2023-04-24T10:06:45.559Z,18.12
2023-04-24T10:09:13.634Z,18.16
2023-04-24T10:11:44.046Z,18.09
2023-04-24T10:14:13.384Z,17.84
2023-04-24T10:16:41.507Z,17.90
2023-04-24T10:19:08.649Z,17.57
2023-04-24T10:21:36.201Z,17.69
2023-04-24T10:24:04.637Z,17.61
2023-04-24T10:26:31.031Z,17.60
2023-04-24T10:28:58.742Z,17.70
2023-04-24T10:31:25.373Z,17.68
2023-04-24T10:33:54.643Z,17.84
2023-04-24T10:36:24.538Z,17.93
2023-04-24T10:38:51.245Z,17.82
2023-04-24T10:41:20.704Z,17.99
2023-04-24T10:43:47.211Z,17.76
2023-04-24T10:46:22.064Z,17.71
2023-04-24T10:48:55.870Z,17.53
2023-04-24T10:51:46.069Z,17.18
2023-04-24T10:54:41.697Z,17.07
2023-04-24T10:57:23.585Z,16.70
2023-04-24T10:59:52.275Z,16.73
2023-04-24T11:02:19.591Z,17.01
2023-04-24T11:04:47.128Z,17.35
2023-04-24T11:07:13.973Z,17.50
2023-04-24T11:09:43.857Z,17.66
2023-04-24T11:12:12.479Z,18.06
2023-04-24T11:14:57.657Z,18.18
2023-04-24T11:17:35.752Z,18.61
2023-04-24T11:20:22.845Z,18.91
2023-04-24T11:22:58.833Z,19.09
2023-04-24T11:25:25.984Z,19.25
2023-04-24T11:28:04.474Z,19.29
2023-04-24T11:30:33.125Z,19.32
2023-04-24T11:33:04.576Z,19.62
2023-04-24T11:35:36.745Z,19.76
2023-04-24T11:38:19.313Z,20.14
2023-04-24T11:40:50.366Z,19.96
2023-04-24T11:43:19.609Z,19.99
2023-04-24T11:45:49.810Z,19.91
2023-04-24T11:48:22.559Z,19.93
2023-04-24T11:50:49.556Z,20.17
2023-04-24T11:53:15.964Z,19.95
2023-04-24T11:55:42.430Z,19.88
2023-04-24T11:58:08.924Z,19.90
2023-04-24T12:00:35.533Z,19.84
2023-04-24T12:03:08.295Z,20.06
2023-04-24T12:05:35.967Z,20.14
2023-04-24T12:08:02.724Z,19.70
2023-04-24T12:10:30.850Z,19.73
2023-04-24T12:12:58.895Z,19.68
2023-04-24T12:15:25.794Z,19.58
2023-04-24T12:17:53.828Z,19.53
2023-04-24T12:20:29.260Z,19.74
2023-04-24T12:22:57.854Z,19.54
2023-04-24T12:25:29.235Z,19.42
2023-04-24T12:28:17.255Z,19.02
2023-04-24T12:30:49.259Z,18.81
2023-04-24T12:33:20.547Z,18.92
2023-04-24T12:35:47.409Z,19.12
2023-04-24T12:38:14.835Z,19.04
2023-04-24T12:40:42.710Z,19.07
2023-04-24T12:43:21.542Z,19.16
2023-04-24T12:45:48.983Z,18.78
2023-04-24T12:48:15.727Z,18.78
2023-04-24T12:50:45.975Z,18.80
2023-04-24T12:53:12.999Z,18.81
2023-04-24T12:55:39.419Z,18.79
2023-04-24T12:58:05.857Z,18.86
2023-04-24T13:00:32.494Z,18.65
2023-04-24T13:02:59.272Z,18.65
2023-04-24T13:05:25.965Z,18.60
2023-04-24T13:07:52.382Z,18.56
2023-04-24T13:10:20.002Z,18.79
2023-04-24T13:12:47.293Z,19.21
2023-04-24T13:15:14.374Z,18.98
2023-04-24T13:17:41.094Z,18.90
2023-04-24T13:20:08.040Z,18.87
2023-04-24T13:22:34.435Z,18.92
2023-04-24T13:25:02.315Z,18.76
2023-04-24T13:27:28.812Z,18.50
2023-04-24T13:29:55.241Z,18.61
2023-04-24T13:32:21.769Z,18.84
2023-04-24T13:34:48.525Z,18.39
2023-04-24T13:37:14.934Z,18.41
2023-04-24T13:39:42.320Z,18.61
2023-04-24T13:42:09.391Z,18.95
2023-04-24T13:44:36.004Z,19.08
2023-04-24T13:47:02.424Z,19.33
2023-04-24T13:49:29.234Z,19.45
2023-04-24T13:51:56.838Z,19.00
2023-04-24T13:54:24.724Z,18.84
2023-04-24T13:56:52.818Z,18.77
2023-04-24T13:59:21.193Z,18.91
2023-04-24T14:01:48.686Z,18.81
2023-04-24T14:04:15.699Z,18.94
2023-04-24T14:06:42.238Z,19.05
2023-04-24T14:09:08.838Z,19.19
2023-04-24T14:11:35.329Z,18.86
2023-04-24T14:14:01.850Z,19.22
2023-04-24T14:16:29.376Z,19.18
2023-04-24T14:18:55.863Z,18.91
2023-04-24T14:21:22.284Z,18.83
2023-04-24T14:23:48.706Z,19.18
2023-04-24T14:26:15.266Z,19.38
2023-04-24T14:28:41.680Z,19.17
2023-04-24T14:31:09.121Z,19.06
2023-04-24T14:33:35.887Z,18.83
2023-04-24T14:36:03.949Z,18.66
2023-04-24T14:38:31.302Z,18.64
2023-04-24T14:41:07.207Z,18.70
2023-04-24T14:43:36.173Z,18.62
2023-04-24T14:46:04.290Z,18.63
2023-04-24T14:48:31.335Z,18.71
2023-04-24T14:50:57.874Z,18.62
2023-04-24T14:53:24.292Z,18.51
2023-04-24T14:55:50.741Z,18.59
2023-04-24T14:58:17.343Z,18.28
2023-04-24T15:00:43.819Z,18.09
2023-04-24T15:03:10.456Z,17.90
2023-04-24T15:05:37.533Z,18.01
2023-04-24T15:08:04.168Z,17.86
2023-04-24T15:10:30.680Z,17.74
2023-04-24T15:12:57.134Z,17.66
2023-04-24T15:15:23.629Z,17.69
2023-04-24T15:17:50.188Z,17.56
2023-04-24T15:20:16.813Z,17.59
2023-04-24T15:22:43.273Z,17.58
2023-04-24T15:25:09.881Z,17.55
2023-04-24T15:27:43.894Z,17.53
2023-04-24T15:30:11.445Z,17.62
2023-04-24T15:32:38.631Z,17.65
2023-04-24T15:35:08.977Z,17.82
2023-04-24T15:37:37.079Z,17.89
2023-04-24T15:40:06.096Z,17.78
2023-04-24T15:42:32.647Z,17.72
2023-04-24T15:44:59.093Z,17.63
2023-04-24T15:47:26.539Z,17.53
2023-04-24T15:49:54.093Z,17.45
2023-04-24T15:52:20.711Z,17.43
2023-04-24T15:54:47.140Z,17.47
2023-04-24T15:57:13.579Z,17.50
2023-04-24T15:59:40.288Z,17.36
2023-04-24T16:02:10.457Z,17.40
2023-04-24T16:04:37.432Z,17.51
2023-04-24T16:07:04.057Z,17.33
2023-04-24T16:09:30.514Z,17.18
2023-04-24T16:11:56.984Z,17.03
2023-04-24T16:14:23.451Z,16.90
2023-04-24T16:16:50.986Z,16.74
2023-04-24T16:19:17.534Z,16.01
2023-04-24T16:21:43.951Z,15.64
2023-04-24T16:24:10.672Z,15.57
2023-04-24T16:26:37.129Z,15.48
2023-04-24T16:29:03.583Z,15.43
2023-04-24T16:31:30.080Z,15.24
2023-04-24T16:33:56.539Z,15.39
2023-04-24T16:36:22.954Z,15.29
2023-04-24T16:38:49.667Z,15.12
2023-04-24T16:41:16.672Z,15.04
2023-04-24T16:43:43.126Z,14.96
2023-04-24T16:46:09.626Z,14.98
2023-04-24T16:48:36.133Z,14.96
2023-04-24T16:51:02.568Z,14.78
2023-04-24T16:53:28.994Z,14.86
2023-04-24T16:55:55.518Z,14.96
2023-04-24T16:58:21.953Z,14.61
2023-04-24T17:00:48.737Z,14.60
2023-04-24T17:03:15.593Z,14.47
2023-04-24T17:05:42.141Z,14.27
2023-04-24T17:08:08.569Z,14.17
2023-04-24T17:10:35.070Z,14.13
2023-04-24T17:13:01.530Z,14.06
2023-04-24T17:15:28.048Z,14.01
2023-04-24T17:17:54.695Z,13.93
2023-04-24T17:20:23.236Z,13.85
2023-04-24T17:22:50.766Z,13.73
2023-04-24T17:25:17.382Z,13.84
2023-04-24T17:27:44.886Z,13.61
2023-04-24T17:30:11.832Z,13.72
2023-04-24T17:32:38.424Z,13.67
2023-04-24T17:35:05.370Z,13.87
2023-04-24T17:37:31.764Z,13.59
2023-04-24T17:39:58.274Z,13.68
2023-04-24T17:42:24.730Z,13.49
2023-04-24T17:44:51.161Z,13.58
2023-04-24T17:47:20.030Z,13.75
2023-04-24T17:49:46.440Z,13.40
2023-04-24T17:52:13.705Z,13.29
2023-04-24T17:54:40.121Z,13.24
2023-04-24T17:57:06.562Z,13.34
2023-04-24T17:59:33.002Z,13.16
2023-04-24T18:01:59.436Z,13.09
2023-04-24T18:04:26.164Z,13.13
2023-04-24T18:06:52.764Z,13.00
2023-04-24T18:09:20.836Z,12.86
2023-04-24T18:11:49.189Z,12.64
2023-04-24T18:14:15.941Z,12.66
2023-04-24T18:16:42.357Z,12.72
2023-04-24T18:19:08.780Z,12.50
2023-04-24T18:21:35.241Z,12.57
2023-04-24T18:24:01.663Z,12.63
2023-04-24T18:26:28.092Z,12.64
2023-04-24T18:28:54.600Z,12.58
2023-04-24T18:31:21.054Z,12.47
2023-04-24T18:33:47.940Z,12.35
2023-04-24T18:36:14.447Z,12.25
2023-04-24T18:38:40.890Z,12.15
2023-04-24T18:41:07.329Z,12.09
2023-04-24T18:43:33.753Z,11.98
2023-04-24T18:46:00.219Z,12.12
2023-04-24T18:48:28.637Z,11.95
2023-04-24T18:50:55.152Z,12.01
2023-04-24T18:53:21.825Z,11.85
2023-04-24T18:55:48.258Z,11.88
2023-04-24T18:58:14.711Z,11.99
2023-04-24T19:00:41.277Z,12.00
2023-04-24T19:03:08.779Z,12.01
2023-04-24T19:05:35.452Z,11.79
2023-04-24T19:08:01.900Z,11.72
2023-04-24T19:10:28.955Z,11.75
2023-04-24T19:12:56.853Z,11.89
2023-04-24T19:15:24.386Z,11.88
2023-04-24T19:17:51.675Z,11.75
2023-04-24T19:20:19.067Z,11.54
2023-04-24T19:22:46.666Z,11.71
2023-04-24T19:25:13.871Z,11.59
2023-04-24T19:27:40.290Z,11.35
2023-04-24T19:30:07.390Z,11.39
2023-04-24T19:32:33.917Z,11.48
2023-04-24T19:35:00.706Z,11.30
2023-04-24T19:37:27.149Z,11.18
2023-04-24T19:39:53.598Z,11.30
2023-04-24T19:42:25.726Z,11.31
2023-04-24T19:44:55.258Z,11.10
2023-04-24T19:47:21.689Z,11.02
2023-04-24T19:49:48.133Z,11.14
2023-04-24T19:52:15.304Z,10.98
2023-04-24T19:54:41.773Z,11.19
2023-04-24T19:57:08.182Z,11.10
2023-04-24T19:59:34.608Z,11.20
2023-04-24T20:02:01.010Z,11.17
2023-04-24T20:04:27.580Z,10.93
2023-04-24T20:06:54.150Z,11.01
2023-04-24T20:09:20.580Z,11.13
2023-04-24T20:11:50.031Z,11.09
2023-04-24T20:14:16.922Z,10.92
2023-04-24T20:16:43.352Z,11.04
2023-04-24T20:19:09.856Z,10.93
2023-04-24T20:21:36.373Z,11.07
2023-04-24T20:24:04.325Z,10.90
2023-04-24T20:26:30.919Z,11.01
2023-04-24T20:28:57.370Z,10.97
2023-04-24T20:31:24.811Z,11.08
2023-04-24T20:33:51.389Z,11.15
2023-04-24T20:36:17.887Z,11.10
2023-04-24T20:38:44.288Z,11.19
2023-04-24T20:41:10.883Z,11.23
2023-04-24T20:43:37.389Z,11.09
2023-04-24T20:46:03.835Z,11.17
2023-04-24T20:48:30.426Z,10.95
2023-04-24T20:50:57.240Z,11.07
2023-04-24T20:53:23.870Z,11.03
2023-04-24T20:55:50.454Z,10.98
2023-04-24T20:58:21.958Z,10.97
2023-04-24T21:00:48.564Z,10.96
2023-04-24T21:03:15.613Z,10.82
2023-04-24T21:05:42.360Z,10.72
2023-04-24T21:08:08.780Z,10.85
2023-04-24T21:10:35.219Z,10.84
2023-04-24T21:13:01.657Z,10.81
2023-04-24T21:15:28.358Z,10.85
2023-04-24T21:17:54.880Z,10.74
2023-04-24T21:20:21.327Z,10.72
2023-04-24T21:22:47.763Z,10.68
2023-04-24T21:25:14.178Z,10.85
2023-04-24T21:27:41.018Z,10.71
2023-04-24T21:30:08.008Z,10.64
2023-04-24T21:32:34.634Z,10.73
2023-04-24T21:35:01.102Z,10.83
2023-04-24T21:37:27.634Z,10.75
2023-04-24T21:39:54.209Z,10.72
2023-04-24T21:42:20.650Z,10.83
2023-04-24T21:44:47.069Z,10.74
2023-04-24T21:47:13.487Z,10.65
2023-04-24T21:49:39.888Z,10.64
2023-04-24T21:52:06.289Z,10.73
2023-04-24T21:54:32.698Z,10.74
2023-04-24T21:56:59.386Z,10.72
2023-04-24T21:59:25.849Z,10.62
2023-04-24T22:01:52.696Z,10.60
2023-04-24T22:04:19.345Z,10.34
2023-04-24T22:06:45.912Z,10.38
2023-04-24T22:09:12.451Z,10.46
2023-04-24T22:11:38.964Z,10.46
2023-04-24T22:14:07.017Z,10.37
2023-04-24T22:16:34.381Z,10.34
2023-04-24T22:19:01.105Z,10.43
2023-04-24T22:21:27.691Z,10.43
2023-04-24T22:23:54.228Z,10.44
2023-04-24T22:26:20.841Z,10.31
2023-04-24T22:28:48.332Z,10.37
2023-04-24T22:31:15.173Z,10.36
2023-04-24T22:33:42.428Z,10.25
2023-04-24T22:36:08.997Z,10.30
2023-04-24T22:38:35.418Z,10.19
2023-04-24T22:41:02.193Z,10.22
2023-04-24T22:43:28.656Z,10.15
2023-04-24T22:45:55.168Z,10.18
2023-04-24T22:48:22.904Z,10.17
2023-04-24T22:50:49.324Z,10.21
2023-04-24T22:53:15.751Z,10.28
2023-04-24T22:55:42.226Z,10.23
2023-04-24T22:58:08.790Z,10.36
2023-04-24T23:00:35.411Z,10.33
2023-04-24T23:03:01.959Z,10.41
2023-04-24T23:05:28.477Z,10.23
2023-04-24T23:07:54.989Z,10.30
2023-04-24T23:10:21.554Z,10.41
2023-04-24T23:12:47.998Z,10.30
2023-04-24T23:15:14.403Z,10.19
2023-04-24T23:17:41.445Z,10.18
2023-04-24T23:20:13.015Z,10.15
2023-04-24T23:22:39.932Z,10.18
2023-04-24T23:25:08.475Z,10.12
2023-04-24T23:27:35.481Z,10.13
2023-04-24T23:30:02.076Z,10.22
2023-04-24T23:32:28.609Z,10.13
2023-04-24T23:34:56.195Z,10.13
2023-04-24T23:37:22.645Z,10.04
2023-04-24T23:39:49.406Z,9.89
2023-04-24T23:42:15.819Z,9.98
2023-04-24T23:44:42.245Z,10.02
2023-04-24T23:47:09.795Z,9.88
2023-04-24T23:49:37.627Z,9.97
2023-04-24T23:52:04.372Z,9.92
2023-04-24T23:54:30.786Z,9.95
2023-04-24T23:56:57.255Z,9.82
2023-04-24T23:59:23.698Z,9.71
